Uladzislau Yablonski

Jefe de ojeadores - BATE
2 Jul 2028
Domingo
Continuar

Personalidad

Adaptabilidad (7) Ambición (3) Controversia (5) Lealtad (16) Presión (10) Profesionalismo (1) Deportividad (19) Temperamento (17)

Perfil

Estilo de dirección Democrático
Licencia Nacional A
Determinación 5
Gestión de personas 7
Motivación 11
Disciplina 5
Satisfacción laboral
100%
Fatiga
0%
Cargo Jefe de ojeadores
Salario 27.4K p/s
Contrato 14.03.2029

Rendimiento

Comportamiento Bueno
Efectividad del entrenamiento
49%
Desarrollo de jugadores
30%
Prevención de lesiones
40%
Implementación táctica
50%

Eventos recientes

Asistió a una reunión de captación ahora
Recomendó un objetivo de fichaje ahora
Recomendó un objetivo de fichaje ahora
Recomendó un objetivo de fichaje ahora
Recomendó un objetivo de fichaje 7d atrás
Recomendó un objetivo de fichaje 7d atrás
Recomendó un objetivo de fichaje 7d atrás
Presentó un informe a la directiva 7d atrás

Actualmente siguiendo

240
Jugador Club Estado Habilidad Confianza Observado Última observación Último voto
Fernando Costanza Krylya Sovetov Activo 132 / 130 40% 9 28.06.2028 -
Ilja Agapov Ufa Activo 115 / 115 40% 4 28.06.2028 -
Rhys Walters Port Vale Activo 116 / 108 40% 1 28.06.2028 -
Alexey Gavrilovich Dinamo Minsk Perdido 91 / 89 69% 1 14.06.2028 -
Matija Popović Fakel Activo 113 / 118 40% 1 14.06.2028 -
Gamid Agalarov Orenburg Activo 111 / 116 40% 1 14.06.2028 -
Alessandro Ghillani Lumezzane Activo 101 / 111 40% 1 13.06.2028 -
Gennaro Tutino Sampdoria Activo 137 / 122 40% 1 13.06.2028 -
Artem Mamin Doncaster Rovers Activo 99 / 107 40% 1 05.06.2028 -
Andy Rinomhota Reading Activo 113 / 122 40% 1 05.06.2028 -
Maxime Sivis Orenburg Activo 116 / 122 40% 5 29.05.2028 -
Josh Tymon Swansea City Activo 143 / 136 40% 3 29.05.2028 -
Garrik Levin Chelyabinsk Activo 108 / 109 40% 1 29.05.2028 -
Marat Bokoev Akron Activo 118 / 123 40% 2 28.05.2028 -
Nikita Kakkoev Nizhniy Novgorod Activo 123 / 115 40% 2 28.05.2028 -
Giuseppe Pezzella Cremonese Activo 134 / 138 40% 3 28.05.2028 -
Fahd Moufi Baltika Activo 121 / 116 40% 4 27.05.2028 -
Yegor Danilkin Rotor Activo 103 / 102 40% 2 27.05.2028 -
Artem Makarchuk Sochi Activo 107 / 109 40% 4 24.05.2028 -
Marcelo Alves SKA Khabarovsk Activo 120 / 112 40% 2 24.05.2028 -
Connor Barrett Walsall Activo 100 / 105 40% 2 24.05.2028 -
Stefan Lončar Akron Activo 122 / 116 40% 7 23.05.2028 -
Conor Shaughnessy Fleetwood Town Activo 122 / 121 40% 1 23.05.2028 -
Pol Valentín Cambridge United Activo 129 / 116 40% 3 22.05.2028 -
Ilja Zhigulev Chernomorets Activo 103 / 103 40% 1 22.05.2028 -
Miroslav Bogosavac Akhmat Grozny Activo 117 / 116 40% 3 20.05.2028 -
Pavel Maslov Chaika Activo 115 / 108 40% 1 20.05.2028 -
Robert Mejía Orenburg Activo 119 / 115 40% 5 19.05.2028 -
Ali McCann Preston Activo 123 / 130 40% 2 19.05.2028 -
Connor Ogilvie Grimsby Town Activo 102 / 112 40% 2 16.05.2028 -
Alexandr Korotkov Rotor Activo 101 / 103 40% 1 16.05.2028 -
Igor Konovalov Chernomorets Activo 106 / 98 40% 1 15.05.2028 -
Darko Todorović Fakel Activo 112 / 117 40% 6 14.05.2028 -
Álvaro Tejero Leganés Activo 140 / 120 40% 1 14.05.2028 -
Léo Cordeiro Ural Activo 108 / 113 40% 4 12.05.2028 -
Bojan Roganović Torpedo Moscow Activo 118 / 110 40% 1 12.05.2028 -
David Kokoev Yenisey Activo 102 / 104 40% 3 10.05.2028 -
Greg Docherty Barrow AFC Activo 128 / 115 40% 2 10.05.2028 -
Charlie Goode Exeter City Activo 103 / 106 40% 1 10.05.2028 -
Alexandr Ivankov Torpedo Moscow Activo 112 / 115 40% 1 08.05.2028 -
Ben Whiteman Harrogate Town Activo 122 / 124 40% 1 08.05.2028 -
Kirill Bozhenov Sokol Activo 105 / 105 40% 1 07.05.2028 -
Stanislav Magkeev Fakel Activo 118 / 113 40% 2 05.05.2028 -
Andrés Alarcón Dinamo Makhachkala Activo 118 / 114 40% 4 04.05.2028 -
Yegor Noskov SKA Khabarovsk Activo 106 / 98 40% 1 04.05.2028 -
Ghislain Konan Mansfield Town Activo 122 / 130 40% 1 02.05.2028 -
Owen Bailey Doncaster Rovers Activo 116 / 110 40% 1 02.05.2028 -
Grigoriy Martyanov Torpedo-BelAZ Activo 80 / 91 69% 1 07.02.2028 Aprobar
Yegor Kortsov Dinamo Brest Activo 118 / 109 40% 2 26.01.2028 -
Maksim Samorodov Akhmat Grozny Activo 130 / 125 40% 6 24.01.2028 -
Alexey Kashtanov Torpedo Moscow Negociando 109 / 111 40% 1 24.01.2028 -
Ilja Tuseev Chelyabinsk Activo 107 / 98 40% 11 23.01.2028 -
Sam Tickle Modena Activo 143 / 141 40% 3 23.01.2028 -
Raul Steffens AVS Activo 130 / 115 40% 1 23.01.2028 -
Igor Obukhov Fakel Activo 111 / 106 40% 8 22.01.2028 -
Michele Cerofolini Empoli Activo 122 / 127 40% 5 22.01.2028 -
Cesare Galeotti Trapani Activo 115 / 122 40% 2 22.01.2028 -
Rustam Yatimov Rostov Activo 119 / 119 40% 12 21.01.2028 -
Alexey Kuznetsov Leningradets Activo 102 / 104 40% 8 20.01.2028 -
Rostislav Soldatenko Torpedo Moscow Activo 107 / 105 40% 9 19.01.2028 -
Yegor Lyubakov Arsenal Tula Activo 95 / 101 40% 7 19.01.2028 -
Kristjan Matošević Triestina Activo 124 / 119 40% 1 18.01.2028 -
Anderson Arroyo Rubin Activo 122 / 120 40% 6 17.01.2028 -
Timur Kraikov Sokol Activo 105 / 97 40% 4 17.01.2028 -
William Rovida Pro Patria Activo 115 / 113 40% 1 17.01.2028 -
Matías Machado Racing Activo 110 / 119 40% 1 17.01.2028 -
Vladislav Masternoy SKA Khabarovsk Activo 103 / 94 40% 1 17.01.2028 -
Jakub Ojrzyński Orebro Activo 103 / 122 40% 3 14.01.2028 -
Elia Boseggia Novara Activo 126 / 125 40% 1 14.01.2028 -
Dmitry Vasiljev Orenburg Activo 120 / 124 40% 3 13.01.2028 -
Nikita Yanovich Tyumen Activo 96 / 102 40% 3 13.01.2028 -
Ivan Lomaev Ufa Activo 118 / 110 40% 9 12.01.2028 -
Petr Kosarevskiy Sibir Activo 105 / 112 40% 10 12.01.2028 -
Arsen Adamov Akhmat Grozny Activo 120 / 119 40% 4 10.01.2028 -
Sergey Volkov Zenit Activo 114 / 119 40% 3 10.01.2028 -
Leonardo Marson Gubbio Activo 105 / 116 40% 1 10.01.2028 -
Evgeny Latyshonok Nizhniy Novgorod Activo 124 / 129 40% 5 08.01.2028 -
Pedro Souza Gefle Activo 101 / 96 40% 1 07.01.2028 -
Ludovico Del Sorbo Sorrento Activo 114 / 124 40% 2 06.01.2028 -
Ignacio Saavedra Sochi Activo 121 / 120 40% 2 06.01.2028 -
Bogdan Ovsyannikov Orenburg Activo 119 / 116 40% 13 04.01.2028 -
Sergio Barlocco Trento Activo 113 / 121 40% 2 04.01.2028 -
Ángel Maciel Tacuarembo Activo 100 / 121 40% 4 03.01.2028 -
Bruno Palazzo Nueva Chicago Negociando 122 / 114 40% 2 03.01.2028 -
Luka Vipotnik NK Domzale Activo 108 / 111 40% 1 03.01.2028 -
Alexandr Kovalenko Sochi Activo 118 / 118 40% 1 03.01.2028 -
Luciano Recalde Quilmes Activo 112 / 106 40% 1 03.01.2028 -
Antonino Viola Catania Activo 118 / 117 40% 1 31.12.2027 -
Alexandr Koryakin Krasnodar Activo 116 / 119 40% 2 30.12.2027 -
Stefan Kovač Baltika Activo 125 / 122 40% 7 29.12.2027 -
Gianluca Saro Foggia Activo 117 / 127 40% 1 29.12.2027 -
Gabriele Baldi Guidonia Montecelio Activo 105 / 117 40% 1 29.12.2027 -
Alexey Mironov Rostov Activo 118 / 120 40% 2 28.12.2027 -
Igor Jesus Los Angeles Football Club Activo 132 / 120 40% 1 28.12.2027 -
Veldin Hodža Rubin Activo 125 / 119 40% 5 27.12.2027 -
Franco Hanashiro Colegiales Activo 110 / 110 40% 1 27.12.2027 -
Konstantin Kovalev Volga Activo 100 / 98 40% 1 26.12.2027 -
Riccardo Gagno Vicenza Activo 136 / 115 40% 1 21.12.2027 -
Timur Magomedov Ufa Activo 119 / 114 40% 6 17.12.2027 -
Soslan Takulov Arsenal Tula Activo 98 / 102 40% 1 17.12.2027 -
Evgeny Staver Rubin Activo 119 / 112 40% 10 06.12.2027 -
Simone Scuffet Pisa Activo 137 / 137 40% 8 05.12.2027 -
Ivan Kukushkin Baltika Activo 106 / 106 40% 4 05.12.2027 -
Francesco D'Alterio Ternana Activo 109 / 106 40% 1 04.12.2027 -
Ilja Pomazun Spartak Moscow Activo 118 / 126 40% 5 03.12.2027 -
Joaquín Silva Plaza Colonia Activo 118 / 109 40% 8 03.12.2027 -
Vadim Uljanov Krylya Sovetov Activo 108 / 116 40% 4 03.12.2027 -
Semuel Pizzignacco Monza Activo 128 / 119 40% 1 30.11.2027 -
Nikita Goilo Zenit Activo 112 / 104 40% 2 21.11.2027 -
Lautaro Herrera Estudiantes Activo 99 / 106 40% 2 20.11.2027 -
David Volk Nizhniy Novgorod Activo 108 / 114 40% 4 10.11.2027 -
Maxim Belov Dinamo Brest Activo 91 / 92 40% 2 08.11.2027 -
Igor Leschuk Dinamo Moscow Activo 122 / 123 40% 8 05.11.2027 -
Miguel Morro Burgos Activo 124 / 128 40% 1 28.10.2027 -
John Victor Chelsea Activo 148 / 131 40% 3 27.10.2027 -
Joaquín Bigo Tristán Suárez Activo 103 / 100 40% 3 24.10.2027 -
Fabricio Hass Central Norte Activo 105 / 104 40% 3 15.10.2027 -
Alexey Mamin Ural Activo 107 / 106 40% 1 09.10.2027 -
Islam Imamov SKA Khabarovsk Activo 101 / 99 40% 1 07.10.2027 -
Cristian Rivero Real Sociedad Activo 143 / 127 40% 6 29.09.2027 -
Toni Fuidias Girona Activo 125 / 128 40% 2 29.09.2027 -
Nikita Kokarev Spartak Moscow Activo 119 / 128 40% 4 28.09.2027 -
Fabricio Iacovich Girona Activo 124 / 133 40% 1 26.09.2027 -
Daniil Frolkin Orenburg Activo 116 / 108 40% 2 25.09.2027 -
Renato Solís Sporting Cristal Activo 121 / 124 40% 2 25.09.2027 -
Joe Gauci Leeds United Activo 115 / 123 40% 1 14.09.2027 -
Cristian Santander Barranquilla Activo 107 / 107 40% 1 05.09.2027 -
Tomás Lingua Universidad Catolica Activo 95 / 104 40% 1 26.08.2027 -
Didier Bueno Jaguares Activo 93 / 112 40% 1 23.08.2027 -
Joaquín Mendive Tristán Suárez Activo 98 / 108 40% 1 13.08.2027 -
Lucas Verza Olimpia Activo 104 / 111 40% 1 31.07.2027 -
Daniel Prieto Alianza Atletico Activo 114 / 122 40% 1 29.07.2027 -
Álvaro Fernández Valencia Activo 152 / 155 40% 3 26.07.2027 -
Maxim Rudakov Chernomorets Activo 95 / 100 40% 1 26.07.2027 -
Aitor Arias Leganés Activo 107 / 103 40% 1 22.07.2027 -
Luis Ureta Alanyaspor Activo 93 / 106 40% 1 21.07.2027 -
Juan Pablo Noce All Boys Activo 113 / 101 40% 1 10.07.2027 -
Maxim Borisko CSKA Moscow Activo 127 / 134 40% 3 07.07.2027 -
Gino Santilli Kalmar FF Activo 121 / 115 40% 1 30.06.2027 -
Anton Mitryushkin Lokomotiv Moscow Activo 124 / 120 40% 4 28.06.2027 -
Mohamed Bamba Torpedo-BelAZ Activo 79 / 85 69% 1 19.06.2027 Aprobar
Mikhail Ignatov Sochi Activo 113 / 117 40% 4 14.06.2027 -
Vladimir Khubulov Dinamo Makhachkala Activo 104 / 108 40% 5 14.06.2027 -
Vyacheslav Grulev Nizhniy Novgorod Activo 112 / 116 40% 11 13.06.2027 -
Unai Ropero Alavés Activo 117 / 103 40% 1 13.06.2027 -
Denis Makarov Krylya Sovetov Activo 120 / 124 40% 8 11.06.2027 -
Ruslan Apekov Torpedo Moscow Activo 108 / 102 40% 4 11.06.2027 -
Iker Pozo Rodina Activo 112 / 110 40% 10 09.06.2027 -
Mario Ćurić Torpedo Moscow Activo 103 / 109 40% 4 09.06.2027 -
Miloš Brnović Arsenal Tula Activo 109 / 118 40% 9 06.06.2027 -
Ramazan Gadjimuradov Chelyabinsk Activo 106 / 111 40% 7 05.06.2027 -
Egas Cacintura Akhmat Grozny Activo 118 / 127 40% 7 02.06.2027 -
Georgie Gent Barnsley Activo 114 / 104 40% 1 30.05.2027 -
Ilja Vakhania Krasnodar Activo 114 / 113 40% 7 29.05.2027 -
Leo Goglichidze Rodina Activo 115 / 117 40% 7 26.05.2027 -
Ruslan Bezrukov Rubin Activo 114 / 111 40% 4 25.05.2027 -
Ivan Komarov Rostov Activo 117 / 112 40% 5 24.05.2027 -
Nazmi Gripshi Rubin Activo 119 / 117 40% 2 24.05.2027 -
Alexandr Ektov Nizhniy Novgorod Activo 113 / 107 40% 4 22.05.2027 -
Kirill Danilin Ural Activo 103 / 102 40% 9 21.05.2027 -
Georgy Melkadze Akhmat Grozny Activo 121 / 111 40% 4 16.05.2027 -
Martin Kramarič Krylya Sovetov Activo 119 / 109 40% 5 15.05.2027 -
Job Ochieng Real Sociedad Activo 98 / 109 40% 1 15.05.2027 -
Douglas Augusto Krasnodar Activo 129 / 131 40% 2 08.05.2027 -
Nikolay Giorgobiani Fakel Activo 108 / 105 40% 5 06.05.2027 -
Eldar Ćivić Baltika Activo 124 / 117 40% 5 06.05.2027 -
Vyacheslav Yakimov Fakel Activo 107 / 110 40% 2 04.05.2027 -
Ilja Safronov Rotor Activo 109 / 97 40% 1 01.05.2027 -
Đorđe Pantelić Spartak Kostroma Activo 112 / 104 40% 4 30.04.2027 -
Konstantin Kuchaev Rostov Activo 124 / 115 40% 7 24.04.2027 -
Vladislav Malkevich Ural Activo 108 / 102 40% 1 18.04.2027 -
Temirkan Sundukov Dinamo Makhachkala Activo 117 / 116 40% 4 17.04.2027 -
Tenton Yenne Baltika Activo 115 / 114 40% 5 13.04.2027 -
Ivan Oleinikov Krylya Sovetov Activo 123 / 116 40% 6 09.04.2027 -
Kamran Aliev SKA Khabarovsk Activo 102 / 103 40% 1 04.04.2027 -
Amar Rahmanović Krylya Sovetov Activo 108 / 109 40% 2 02.04.2027 -
Lechi Sadulaev Akhmat Grozny Activo 127 / 127 40% 7 30.03.2027 -
Ugochukwu Iwu Rubin Activo 126 / 113 40% 4 22.03.2027 -
Dardan Shabanhaxhaj Rubin Activo 118 / 115 40% 4 22.03.2027 -
Yury Zheleznov Akron Activo 100 / 102 40% 2 22.03.2027 -
Bogdan Jočić Rubin Activo 110 / 111 40% 3 16.03.2027 -
Mihajlo Banjac Krylya Sovetov Activo 108 / 110 40% 3 13.03.2027 -
Mohammad Javad Hosseinnejad Dinamo Makhachkala Activo 106 / 119 40% 3 12.03.2027 -
Moisés CSKA Moscow Activo 124 / 124 40% 2 10.03.2027 -
Vladislav Sarveli Nizhniy Novgorod Activo 116 / 109 40% 2 10.03.2027 -
Maxim Mukhin Rostov Activo 116 / 111 40% 2 07.03.2027 -
Vladislav Solanovich Belshina Activo 88 / 88 69% 1 15.02.2027 Aprobar
Alexandr Filin Baltika Activo 109 / 113 40% 1 08.02.2027 -
Ítalo Ural Activo 113 / 117 40% 1 08.02.2027 -
Andrey Langovich Rostov Activo 111 / 114 40% 2 14.01.2027 -
Denil Maldonado Rubin Activo 115 / 120 40% 1 14.01.2027 -
Kirill Schetinin Akhmat Grozny Activo 115 / 118 40% 2 08.01.2027 -
Jonathan Okoronkwo Torpedo Moscow Activo 107 / 101 40% 1 06.01.2027 -
François Kamano Sochi Activo 116 / 118 40% 3 28.12.2026 -
Edu Expósito Espanyol Activo 148 / 129 40% 1 27.12.2026 -
Edgardo Fariña Nizhniy Novgorod Activo 112 / 108 40% 1 25.12.2026 -
Kevin Pina Krasnodar Activo 118 / 132 40% 1 24.12.2026 -
Júlio Romão Akhmat Grozny Activo 117 / 120 40% 2 22.12.2026 -
Mingiyan Beveev Baltika Activo 118 / 114 40% 1 20.12.2026 -
Ousmane Ndong Akhmat Grozny Activo 110 / 104 40% 1 16.12.2026 -
Victor Melekhin Rostov Activo 120 / 130 40% 1 14.12.2026 -
Vladis Emmersón Yenisey Activo 112 / 110 40% 1 12.12.2026 -
Mitja Križan Rodina Activo 109 / 99 40% 1 12.12.2026 -
Nikolay Rasskazov Krylya Sovetov Activo 108 / 108 40% 3 08.12.2026 -
Roman Yezhov Sochi Activo 107 / 103 40% 1 04.12.2026 -
Christopher Martins Pereira Spartak Moscow Activo 125 / 127 40% 1 28.11.2026 -
Dmitry Skopintsev Dinamo Moscow Activo 113 / 119 40% 2 10.11.2026 -
Guljigit Alykulov Dinamo Minsk Activo 107 / 113 40% 2 09.11.2026 -
Tom Pearce Chesterfield Activo 104 / 108 40% 2 05.11.2026 -
Mariano Bracamonte Deportivo Riestra Activo 128 / 118 40% 2 04.11.2026 -
Tobías Bovone Deportivo Pereira Activo 105 / 100 40% 2 04.11.2026 -
Lucas Cepeda Elche Activo 113 / 136 40% 1 04.11.2026 -
Eli King Gillingham Activo 105 / 119 40% 1 04.11.2026 -
Alexis Steimbach Gimnasia La Plata Activo 114 / 116 40% 2 01.11.2026 -
Luke Molyneux Doncaster Rovers Activo 125 / 101 40% 2 01.11.2026 -
Aymen Boutoutaou FCSB Activo 109 / 102 40% 1 01.11.2026 -
Matías Pellegrini Vélez Activo 119 / 108 40% 2 30.10.2026 -
Olaus Skarsem Sarpsborg 08 Activo 120 / 99 40% 3 30.10.2026 -
Matthias Seidl Rapid Wien Activo 132 / 136 40% 1 28.10.2026 -
Kein Sato FC Tokyo Activo 122 / 122 40% 2 27.10.2026 -
Fredéric Ananou Olimpija Ljubljana Activo 116 / 111 40% 1 26.10.2026 -
Sebastian Mailat Botosani Activo 117 / 118 40% 1 21.10.2026 -
Josh Benson Rotherham United Activo 96 / 111 40% 1 21.10.2026 -
Lawrence Ennali Houston Dynamo Activo 107 / 101 40% 1 14.10.2026 -
Matthew Garbett Peterborough United Activo 109 / 114 40% 1 14.10.2026 -
Isaac Matondo Koper Activo 104 / 107 40% 1 09.10.2026 -
Thomas Carrique Andorra Activo 111 / 109 40% 1 08.10.2026 -
Rauno Sappinen Flora Activo 118 / 115 40% 1 08.10.2026 -
Daniel Kyerewaa Reading Activo 103 / 122 40% 1 08.10.2026 -
Louis Thompson Stevenage Activo 104 / 103 40% 1 07.10.2026 -
Marcus Browne AFC Wimbledon Activo 110 / 96 40% 1 05.10.2026 -
Mauricio Cardillo San Lorenzo Activo 123 / 130 40% 1 07.09.2026 -
Francisco Gerometta Godoy Cruz Activo 121 / 113 40% 1 07.09.2026 -
Hakeem Odoffin Luton Town Activo 106 / 118 40% 1 07.09.2026 -
Fabricio Corbalán Gimnasia La Plata Activo 114 / 119 40% 1 31.08.2026 -
Rüstəm Əhmədzadə Sumgayit Activo 103 / 118 40% 1 24.08.2026 -
Franck Boli Al Ahly Activo 110 / 117 40% 1 24.08.2026 -
Tom Holmes Luton Town Activo 117 / 98 40% 1 18.08.2026 -
Mark McGuinness Sheffield United Activo 113 / 105 40% 1 18.08.2026 -
Timofey Kashitsyn Spartak Nalchik Activo 53 / 56 40% 1 06.08.2026 -